<?xml version='1.0' encoding='UTF-8'?>
<gpx xmlns="http://www.topografix.com/GPX/1/1" creator="www.balnam.be" version="1.1" xmlns:xsi="http://www.w3.org/2001/XMLSchema-instance" xsi:schemaLocation="http://www.topografix.com/GPX/1/1 http://www.topografix.com/GPX/1/1/gpx.xsd">
<trk>
<name>ngdhdLv524</name>
<cmt>r</cmt>
<desc>Houdremont Chemin n°Lv524 Rue Joseph Dubois / ligne 553 (vicinal SNCV) / Rue du Bois d'Auge</desc>
<link href="https://chemins.be/houdremont/chemin/Lv524"/><trkseg>
<trkpt lat="49.954896" lon="4.940164"><time>2026-05-02T20:53:04Z</time></trkpt>
<trkpt lat="49.953964" lon="4.941309"><time>2026-05-02T21:03:04Z</time></trkpt>
<trkpt lat="49.948892" lon="4.943394"><time>2026-05-02T21:13:04Z</time></trkpt>
<trkpt lat="49.945493" lon="4.945262"><time>2026-05-02T21:23:04Z</time></trkpt>
</trkseg></trk>
<trk>
<name>ngdhdLv524</name>
<cmt>s</cmt>
<desc>Houdremont Chemin n°Lv524 Rue Joseph Dubois / ligne 553 (vicinal SNCV) / Rue du Bois d'Auge</desc>
<link href="https://chemins.be/houdremont/chemin/Lv524"/><trkseg>
<trkpt lat="49.945493" lon="4.945262"><time>2026-05-02T21:23:04Z</time></trkpt>
<trkpt lat="49.945301" lon="4.945845"><time>2026-05-02T21:33:04Z</time></trkpt>
<trkpt lat="49.945106" lon="4.947055"><time>2026-05-02T21:43:04Z</time></trkpt>
<trkpt lat="49.944444" lon="4.948259"><time>2026-05-02T21:53:04Z</time></trkpt>
<trkpt lat="49.943264" lon="4.948718"><time>2026-05-02T22:03:04Z</time></trkpt>
</trkseg></trk>
<trk>
<name>ngdhdLv524</name>
<cmt>v</cmt>
<desc>Houdremont Chemin n°Lv524 Rue Joseph Dubois / ligne 553 (vicinal SNCV) / Rue du Bois d'Auge</desc>
<link href="https://chemins.be/houdremont/chemin/Lv524"/><trkseg>
<trkpt lat="49.943264" lon="4.948718"><time>2026-05-02T22:03:04Z</time></trkpt>
<trkpt lat="49.942387" lon="4.949669"><time>2026-05-02T22:13:04Z</time></trkpt>
<trkpt lat="49.941327" lon="4.949433"><time>2026-05-02T22:23:04Z</time></trkpt>
<trkpt lat="49.940694" lon="4.948367"><time>2026-05-02T22:33:04Z</time></trkpt>
<trkpt lat="49.940215" lon="4.947107"><time>2026-05-02T22:43:04Z</time></trkpt>
</trkseg></trk>
<trk>
<name>ngdhdLv524</name>
<cmt>q</cmt>
<desc>Houdremont Chemin n°Lv524 Rue Joseph Dubois / ligne 553 (vicinal SNCV) / Rue du Bois d'Auge</desc>
<link href="https://chemins.be/houdremont/chemin/Lv524"/><trkseg>
<trkpt lat="49.940215" lon="4.947107"><time>2026-05-02T22:43:04Z</time></trkpt>
<trkpt lat="49.940042" lon="4.946927"><time>2026-05-02T22:53:04Z</time></trkpt>
<trkpt lat="49.938827" lon="4.946573"><time>2026-05-02T23:03:04Z</time></trkpt>
<trkpt lat="49.937460" lon="4.946272"><time>2026-05-02T23:13:04Z</time></trkpt>
<trkpt lat="49.936703" lon="4.946326"><time>2026-05-02T23:23:04Z</time></trkpt>
<trkpt lat="49.935650" lon="4.946616"><time>2026-05-02T23:33:04Z</time></trkpt>
</trkseg></trk>
<trk>
<name>ngdhdLv524</name>
<cmt>v</cmt>
<desc>Houdremont Chemin n°Lv524 Rue Joseph Dubois / ligne 553 (vicinal SNCV) / Rue du Bois d'Auge</desc>
<link href="https://chemins.be/houdremont/chemin/Lv524"/><trkseg>
<trkpt lat="49.935650" lon="4.946616"><time>2026-05-02T23:33:04Z</time></trkpt>
<trkpt lat="49.935433" lon="4.946632"><time>2026-05-02T23:43:04Z</time></trkpt>
<trkpt lat="49.934166" lon="4.946700"><time>2026-05-02T23:53:04Z</time></trkpt>
<trkpt lat="49.933677" lon="4.947502"><time>2026-05-03T00:03:04Z</time></trkpt>
<trkpt lat="49.932964" lon="4.949680"><time>2026-05-03T00:13:04Z</time></trkpt>
<trkpt lat="49.931676" lon="4.950194"><time>2026-05-03T00:23:04Z</time></trkpt>
<trkpt lat="49.930812" lon="4.949995"><time>2026-05-03T00:33:04Z</time></trkpt>
<trkpt lat="49.930806" lon="4.949991"><time>2026-05-03T00:43:04Z</time></trkpt>
<trkpt lat="49.930070" lon="4.949450"><time>2026-05-03T00:53:04Z</time></trkpt>
<trkpt lat="49.929328" lon="4.948689"><time>2026-05-03T01:03:04Z</time></trkpt>
<trkpt lat="49.927337" lon="4.947773"><time>2026-05-03T01:13:04Z</time></trkpt>
<trkpt lat="49.926518" lon="4.947917"><time>2026-05-03T01:23:04Z</time></trkpt>
<trkpt lat="49.926219" lon="4.948261"><time>2026-05-03T01:33:04Z</time></trkpt>
<trkpt lat="49.925583" lon="4.949563"><time>2026-05-03T01:43:04Z</time></trkpt>
<trkpt lat="49.925016" lon="4.949737"><time>2026-05-03T01:53:04Z</time></trkpt>
</trkseg>
</trk>
</gpx>